Tiempo atmosférico en la estación meteorológica de Cañizares, Cuenca (940 m.)



Fecha
DESCASC
Temp. máxima en grados centígrados (hora)
DESCASC
Temp. mínima en grados centígrados (hora)
DESCASC
Temp. media en grados centígrados
DESCASC
Racha de viento máxima en m/sg (hora)
DESCASC
Velocidad máxima media en intervalos de 10 minutos(hora)
DESCASC
Precipitaciones diarias en mm
DESCASC
Precipitaciones de 00:00 a 06:00 en mm
DESCASC
Precipitaciones de 06:00 a 12:00 en mm
DESCASC
Precipitaciones de 12:00 a 18:00 en mm
DESCASC
Precipitaciones de 18:00 a 24:00 en mm
DESCASC
16-01-2020 12.4 (14:40) 1.6 (23:50) 7 -- (--) -- (--) 0 0 0 0 0
15-01-2020 10.7 (14:10) 0 (08:10) 5.3 -- (--) -- (--) 0 0 0 0 0
14-01-2020 10 (14:50) -6.1 (08:30) 2 -- (--) -- (--) 0 0 0 0 0
13-01-2020 10.9 (14:40) -6.1 (08:00) 2.4 -- (--) -- (--) 0 0 0 0 0
12-01-2020 12.6 (15:50) -5.8 (-00:0) 3.4 -- (--) -- (--) 0 0 0 0 0
11-01-2020 12.3 (16:00) -3.9 (-00:0) 4.2 -- (--) -- (--) 0 0 0 0 0
10-01-2020 10.1 (15:20) -0.3 (00:00) 4.9 -- (--) -- (--) 0 0 0 0 0
09-01-2020 14.5 (15:50) -2 (-00:0) 6.3 -- (--) -- (--) 0 0 0 0 0
08-01-2020 17.1 (14:30) -2.5 (-00:0) 7.3 -- (--) -- (--) 0 0 0 0 0
07-01-2020 17.9 (15:30) -4 (-00:0) 6.9 -- (--) -- (--) 0 0 0 0 0
06-01-2020 15.3 (15:50) -3.8 (-00:0) 5.8 -- (--) -- (--) 0 0 0 0 0
05-01-2020 16.5 (15:30) -3.9 (-00:0) 6.3 -- (--) -- (--) 0 0 0 0 0
04-01-2020 10.7 (15:30) -1.1 (-00:0) 4.8 -- (--) -- (--) 0 0 0 0 0
03-01-2020 11.9 (14:50) -3.4 (-00:0) 4.2 -- (--) -- (--) 0 0 0 0 0
02-01-2020 15.4 (15:30) -4.1 (-00:0) 5.6 -- (--) -- (--) 0 0 0 0 0
01-01-2020 14.5 (15:30) -3.8 (-00:0) 5.4 -- (--) -- (--) 0.1 0 0 0.1 0
31-12-2019 15.5 (15:20) -2.7 (-00:0) 6.4 -- (--) -- (--) 0 0 0 0 0
30-12-2019 13.7 (14:30) -3.8 (-00:0) 4.9 -- (--) -- (--) 0 0 0 0 0
29-12-2019 14.4 (14:30) -3.1 (-00:0) 5.6 -- (--) -- (--) 0.1 0 0.1 0 0
28-12-2019 18.4 (15:50) -4.8 (-00:0) 6.8 -- (--) -- (--) 0 0 0 0 0
27-12-2019 13.2 (13:40) -3.6 (-00:0) 4.8 -- (--) -- (--) 0 0 0 0 0
26-12-2019 16.5 (13:40) -0.6 (-00:0) 7.9 -- (--) -- (--) 0 0 0 0 0
25-12-2019 16 (15:00) 0 (00:00) 8 -- (--) -- (--) 0.2 0 0 0 0.2
24-12-2019 17.4 (15:20) 0.2 (00:00) 8.8 -- (--) -- (--) 0 0 0 0 0
23-12-2019 13.6 (15:20) 1.3 (00:00) 7.5 -- (--) -- (--) 0.7 0.7 0 0 0
22-12-2019 10.9 (16:10) 7.1 (00:00) 9 -- (--) -- (--) 11 1.8 1.6 5 2.6
21-12-2019 14.6 (13:40) 9.5 (00:00) 12.1 -- (--) -- (--) 26.3 0.1 16.4 9.8 0

Gráficas

Temp. máximas Temp. mínimas Temp. medias Precipitaciones Rachas de viento máximas Velocidades máximas media en intervalos de 10 minutos

Datos horarios

Fecha y hora oficial Temperatura (ºC) Velocidad del viento (km/h) Dirección del viento Racha (km/h) Dirección de racha Precipitación (mm) Presión (hPa) Tendencia (hPa) Humedad (%)
2020-01-19 23:00:00 1.6 -- -- 18 Nordeste 0 914.6 1.1 86
2020-01-19 22:00:00 1.7 -- -- 19 Nordeste 0 914.3 1.4 87
2020-01-19 21:00:00 1.9 -- -- 15 Oeste 0 914 1.5 89
2020-01-19 20:00:00 2.4 -- -- 15 Oeste 0 913.5 1.4 90
2020-01-19 19:00:00 2.9 -- -- 18 Oeste 0 912.9 0.9 93
2020-01-19 18:00:00 3.8 -- -- 22 Oeste 0 912.5 0.6 90
2020-01-19 17:00:00 4.1 -- -- 13 Sudoeste 0 912.1 0.1 95
2020-01-19 16:00:00 4.1 -- -- 19 Sudoeste 0.4 912 0.2 99
2020-01-19 15:00:00 3.5 -- -- 14 Sudoeste 0.3 911.9 0.4 99
2020-01-19 14:00:00 4.1 -- -- 14 Nordeste 0.5 912 0.6 99
2020-01-19 13:00:00 4.1 -- -- 21 Oeste 0.3 911.8 1.2 99
2020-01-19 12:00:00 4.6 -- -- 18 Nordeste 0.1 911.5 1.1 99
2020-01-19 11:00:00 4.3 -- -- 15 Norte 0 911.4 1.2 99
2020-01-19 10:00:00 3.6 -- -- 13 Noroeste 0 910.6 0.2 99
2020-01-19 09:00:00 3 -- -- 5 Sudoeste 0.1 910.4 -0.3 99
2020-01-19 08:00:00 2.5 -- -- -- -- 0 910.2 -1.1 99
2020-01-19 07:00:00 2.1 -- -- -- -- 0.2 910.4 -1 99
2020-01-19 06:00:00 2 -- -- -- -- 0 910.7 -0.9 99
2020-01-19 05:00:00 2.2 -- -- 3 Nordeste 0.1 911.3 -0.5 99
2020-01-19 04:00:00 2.8 -- -- 0 Calma 0.3 911.4 -0.3 99
2020-01-19 03:00:00 3 -- -- 0 Calma 0.3 911.6 -1.2 99
2020-01-19 02:00:00 3.2 -- -- 2 Sudeste 0.3 911.8 -0.7 99
2020-01-19 01:00:00 4.7 -- -- 3 Oeste 0.3 911.7 -1 99
2020-01-19 00:00:00 5.6 -- -- 8 Oeste 0.5 912.8 0.1 99
2020-01-18 23:00:00 7.3 -- -- 13 Sudoeste 0.8 912.5 -0.8 99
2020-01-18 22:00:00 7.9 -- -- 9 Este 1.3 912.7 -1.1 99
2020-01-18 21:00:00 7.7 -- -- 6 Este 0.5 912.7 -1.9 99
2020-01-18 20:00:00 7.5 -- -- 6 Este 0.4 913.3 -1.7 99
2020-01-18 19:00:00 7.7 -- -- 12 Este 0.4 913.8 -2.3 99
2020-01-18 18:00:00 7.3 -- -- 9 Nordeste 0.2 914.6 -2.7 99
2020-01-18 17:00:00 7.1 -- -- 5 Este 0.2 915 -3.4 99
2020-01-18 16:00:00 7 -- -- 4 Sudoeste 0.4 916.1 -3.8 99
2020-01-18 15:00:00 6.8 -- -- 6 Nordeste 0.2 917.3 -3.8 99
2020-01-18 14:00:00 6.8 -- -- 5 Sur 0.2 918.4 -3.4 99
2020-01-18 13:00:00 6.4 -- -- 4 Sudoeste 0.1 919.9 -1.9 99
2020-01-18 12:00:00 5 -- -- 3 Noroeste 0.1 921.1 -0.8 99
2020-01-18 11:00:00 3.6 -- -- -- -- 0 921.8 0.1 99
2020-01-18 10:00:00 2.3 -- -- 2 Noroeste 0.3 921.8 -0.5 99
2020-01-18 09:00:00 1.9 -- -- 5 Sur 0 921.9 -0.8 99
2020-01-18 08:00:00 1.2 -- -- 3 Nordeste 0 921.7 -0.8 99
2020-01-18 07:00:00 1 -- -- 3 Este 0 922.3 -0.1 99
2020-01-18 06:00:00 0.4 -- -- -- -- 0 922.7 0.2 99
2020-01-18 05:00:00 0 -- -- 2 Oeste 0 922.5 -0.7 99
2020-01-18 04:00:00 -0.3 -- -- 5 Oeste 0 922.4 -1.3 99
2020-01-18 03:00:00 -0.7 -- -- -- -- 0 922.5 -1.6 99
2020-01-18 02:00:00 0 -- -- -- -- 0 923.2 -0.9 99
2020-01-18 01:00:00 0.4 -- -- -- -- 0 923.7 -0.3 99
2020-01-18 00:00:00 0.3 -- -- 0 Calma 0 924.1 0.2 99
2020-01-17 23:00:00 0.4 -- -- 2 Oeste 0 924.1 0.5 99
2020-01-17 22:00:00 0.9 -- -- 4 Sudeste 0 924 1 99
2020-01-17 21:00:00 2.2 -- -- 5 Oeste 0 923.9 1.6 99
2020-01-17 20:00:00 2.7 -- -- 5 Oeste 0 923.6 1.6 99
2020-01-17 19:00:00 4.1 -- -- -- -- 0 923 1.4 99
2020-01-17 18:00:00 6.5 -- -- 3 Este 0 922.3 0.8 99
2020-01-17 17:00:00 10.2 -- -- 12 Oeste 0 922 0.2 92
2020-01-17 16:00:00 11.5 -- -- 7 Noroeste 0 921.6 -0.7 95
2020-01-17 15:00:00 9.6 -- -- 10 Sur 0 921.5 -1.4 99
2020-01-17 14:00:00 9.5 -- -- 8 Sudeste 0 921.8 -0.6 99
2020-01-17 13:00:00 8 -- -- 11 Sudeste 0 922.3 0.4 99
2020-01-17 12:00:00 7.2 -- -- 10 Sur 0 922.9 2 99
2020-01-17 11:00:00 6.8 -- -- 12 Sudeste 0 922.4 1.4 99
2020-01-17 10:00:00 7.1 -- -- 9 Oeste 0 921.9 1.8 99
2020-01-17 09:00:00 4.9 -- -- 2 Sudeste 0 920.9 1.2 99
2020-01-17 08:00:00 4.8 -- -- 0 Calma 0 921 1.5 99
2020-01-17 07:00:00 4 -- -- -- -- 0 920.1 0.5 99
2020-01-17 06:00:00 5.6 -- -- 4 Este 0 919.7 0.3 99
2020-01-17 05:00:00 6.4 -- -- 4 Oeste 0 919.5 -0.2 99
2020-01-17 04:00:00 5 -- -- 5 Oeste 0 919.6 -0.1 99
2020-01-17 03:00:00 4.4 -- -- 5 Norte 0 919.4 -0.3 99
2020-01-17 02:00:00 4.1 -- -- 6 Oeste 0 919.7 0.3 99
2020-01-17 01:00:00 2.9 -- -- 5 Sudoeste 0 919.7 0.4 99
2020-01-17 00:00:00 1.9 -- -- 5 Sudoeste 0 919.7 0.3 99
2020-01-16 23:00:00 2.3 -- -- 8 Oeste 0 919.4 0.5 99
2020-01-16 22:00:00 2.1 -- -- 4 Oeste 0 919.3 0.8 99
2020-01-16 21:00:00 2.6 -- -- 0 Calma 0 919.4 1.2 99
2020-01-16 20:00:00 3.8 -- -- 0 Calma 0 918.9 1.3 99
2020-01-16 19:00:00 5.8 -- -- 2 Este 0 918.5 0.3 99
2020-01-16 18:00:00 7.7 -- -- 7 Este 0 918.2 0 99
2020-01-16 17:00:00 11.9 -- -- 9 Oeste 0 917.6 -1.5 92
2020-01-16 16:00:00 12.1 -- -- 11 Oeste 0 918.2 -1.6 92
2020-01-16 15:00:00 12 -- -- 11 Noroeste 0 918.2 -2 97
2020-01-16 14:00:00 11.4 -- -- 12 Oeste 0 919.1 -1.3 99
2020-01-16 13:00:00 10.5 -- -- 9 Sur 0 919.8 -0.5 99
2020-01-16 12:00:00 11.2 -- -- 5 Sudeste 0 920.2 -0.1 99
2020-01-16 11:00:00 8.7 -- -- -- -- 0 920.4 0.3 99
2020-01-16 10:00:00 6.9 -- -- -- -- 0 920.3 0.4 99
2020-01-16 09:00:00 5.3 -- -- -- -- 0 920.3 0.6 99
2020-01-16 08:00:00 5 -- -- -- -- 0 920.1 0.5 99
2020-01-16 07:00:00 5.4 -- -- 0 Calma 0 919.9 0 99
2020-01-16 06:00:00 5.4 -- -- -- -- 0 919.7 -0.6 99
2020-01-16 05:00:00 5.6 -- -- -- -- 0 919.6 -0.5 99
2020-01-16 04:00:00 5.6 -- -- -- -- 0 919.9 -0.3 99
2020-01-16 03:00:00 5.7 -- -- -- -- 0 920.3 -0.1 99
2020-01-16 02:00:00 5.6 -- -- -- -- 0 920.1 0 99
2020-01-16 01:00:00 5.9 -- -- -- -- 0 920.2 0.1 99
2020-01-16 00:00:00 5.9 -- -- 2 Oeste 0 920.4 0.5 99
2020-01-15 23:00:00 6 -- -- -- -- 0 920.1 0.5 99
2020-01-15 22:00:00 6 -- -- 0 Calma 0 920.1 0.8 99
2020-01-15 21:00:00 6.4 -- -- 0 Calma 0 919.9 1.2 99
2020-01-15 20:00:00 6.4 -- -- -- -- 0 919.6 1.5 99
2020-01-15 19:00:00 7.2 -- -- 0 Calma 0 919.3 1.3 99
2020-01-15 18:00:00 7.8 -- -- 4 Sudeste 0 918.7 0.9 99
2020-01-15 17:00:00 9 -- -- 9 Sudeste 0 918.1 0.3 97
2020-01-15 16:00:00 9.1 -- -- 9 Sudoeste 0 918 -0.2 93
2020-01-15 15:00:00 9.6 -- -- 8 Oeste 0 917.8 -0.6 90
2020-01-15 14:00:00 10.6 -- -- 8 Oeste 0 917.8 -0.1 87
2020-01-15 13:00:00 9.8 -- -- 7 Noroeste 0 918.2 0.9 89
2020-01-15 12:00:00 9.8 -- -- 3 Sudeste 0 918.4 1.7 94
2020-01-15 11:00:00 7.4 -- -- -- -- 0 917.9 2 99
2020-01-15 10:00:00 1.8 -- -- -- -- 0 917.3 1.8 99
2020-01-15 09:00:00 0.2 -- -- 2 Nordeste 0 916.7 1.4 99
2020-01-15 08:00:00 0.1 -- -- 3 Este 0 915.9 0.5 99
2020-01-15 07:00:00 1.9 -- -- 3 Noroeste 0 915.5 -0.1 99
2020-01-15 06:00:00 2.1 -- -- -- -- 0 915.3 -0.1 99
2020-01-15 05:00:00 2 -- -- -- -- 0 915.4 0.2 99
2020-01-15 04:00:00 1.8 -- -- -- -- 0 915.6 -0.3 99
2020-01-15 03:00:00 1.5 -- -- -- -- 0 915.4 -0.4 99
2020-01-15 02:00:00 1.5 -- -- -- -- 0 915.2 -0.5 99
2020-01-15 01:00:00 1.1 -- -- 2 Sudoeste 0 915.9 0 99
2020-01-15 00:00:00 0.8 -- -- 3 Oeste 0 915.8 0.1 99
2020-01-14 23:00:00 0.3 -- -- -- -- 0 915.7 0.6 99
2020-01-14 22:00:00 -0.4 -- -- -- -- 0 915.9 0.9 99
2020-01-14 21:00:00 -1.5 -- -- -- -- 0 915.7 1.6 99
2020-01-14 20:00:00 -1.1 -- -- -- -- 0 915.1 1.2 99
2020-01-14 19:00:00 -0.2 -- -- -- -- 0 915 1.2 99
2020-01-14 18:00:00 1.4 -- -- -- -- 0 914.1 0.3 99
2020-01-14 17:00:00 6 -- -- 6 Sur 0 913.9 -0.2 83
2020-01-14 16:00:00 9.4 -- -- 6 Sudeste 0 913.8 -1.3 74
2020-01-14 15:00:00 9.4 -- -- 8 Oeste 0 913.8 -2.1 80
2020-01-14 14:00:00 8.1 -- -- 8 Oeste 0 914.1 -2.2 84
2020-01-14 13:00:00 7.2 -- -- 3 Sudeste 0 915.1 -1.2 87
2020-01-14 12:00:00 4.9 -- -- -- -- 0 915.9 -0.1 92
2020-01-14 11:00:00 0.8 -- -- -- -- 0 916.3 0.5 99
2020-01-14 10:00:00 -4.5 -- -- -- -- 0 916.3 0.6 99
2020-01-14 09:00:00 -6 -- -- -- -- 0 916 0.5 99
2020-01-14 08:00:00 -5.8 -- -- -- -- 0 915.8 0.3 99
2020-01-14 07:00:00 -5.5 -- -- -- -- 0 915.7 0 99
2020-01-14 06:00:00 -5.5 -- -- -- -- 0 915.5 -0.3 99
2020-01-14 05:00:00 -5.3 -- -- -- -- 0 915.5 -0.9 99
2020-01-14 04:00:00 -4.8 -- -- -- -- 0 915.7 -1.2 99
2020-01-14 03:00:00 -4.6 -- -- -- -- 0 915.8 -1.1 99
2020-01-14 02:00:00 -3.8 -- -- -- -- 0 916.4 -0.4 99
2020-01-14 01:00:00 -3.5 -- -- -- -- 0 916.9 0.6 99
2020-01-14 00:00:00 -3.2 -- -- -- -- 0 916.9 0.5 99
2020-01-13 23:00:00 -2.6 -- -- -- -- 0 916.8 0.4 99
2020-01-13 22:00:00 -2.1 -- -- -- -- 0 916.3 -0.3 99
2020-01-13 21:00:00 -1.5 -- -- -- -- 0 916.4 0.4 99
2020-01-13 20:00:00 -0.3 -- -- 0 Calma 0 916.4 0.3 99
2020-01-13 19:00:00 0.8 -- -- -- -- 0 916.6 0.3 99
2020-01-13 18:00:00 3.7 -- -- -- -- 0 916 -0.3 94
2020-01-13 17:00:00 8.2 -- -- 7 Oeste 0 916.1 -0.5 65
2020-01-13 16:00:00 9 -- -- 6 Oeste 0 916.3 -1.1 59
2020-01-13 15:00:00 9.5 -- -- 8 Oeste 0 916.3 -2.6 55
2020-01-13 14:00:00 9.4 -- -- 6 Oeste 0 916.6 -2.6 57
2020-01-13 13:00:00 6.7 -- -- 2 Oeste 0 917.4 -1.3 68
2020-01-13 12:00:00 5.1 -- -- 0 Calma 0 918.9 0.2 79
2020-01-13 11:00:00 1.6 -- -- -- -- 0 919.2 0.2 99
2020-01-13 10:00:00 -3.4 -- -- -- -- 0 918.7 -0.4 99
2020-01-13 09:00:00 -5.7 -- -- -- -- 0 918.7 -0.6 99
2020-01-13 08:00:00 -5.8 -- -- -- -- 0 919 -0.6 99
2020-01-13 07:00:00 -5.7 -- -- -- -- 0 919.1 -1.1 99
2020-01-13 06:00:00 -5.2 -- -- 0 Calma 0 919.3 -1.4 99
2020-01-13 05:00:00 -5.4 -- -- -- -- 0 919.6 -1.2 99
2020-01-13 04:00:00 -5 -- -- 0 Calma 0 920.2 -1.4 99
2020-01-13 03:00:00 -4.8 -- -- -- -- 0 920.7 -1 99
2020-01-13 02:00:00 -4.2 -- -- 0 Calma 0 920.8 -1.1 99
2020-01-13 01:00:00 -4 -- -- -- -- 0 921.6 -0.3 99
2020-01-13 00:00:00 -3.3 -- -- -- -- 0 921.7 -0.2 99
2020-01-12 23:00:00 -2.7 -- -- -- -- 0 921.9 0.2 99
2020-01-12 22:00:00 -2.4 -- -- -- -- 0 921.9 0.9 99
2020-01-12 21:00:00 -1.4 -- -- -- -- 0 921.9 1.7 99
2020-01-12 20:00:00 -0.7 -- -- -- -- 0 921.7 2 99
2020-01-12 19:00:00 0.4 -- -- -- -- 0 921 1.7 99
2020-01-12 18:00:00 2.1 -- -- -- -- 0 920.2 0.7 99
2020-01-12 17:00:00 6.1 -- -- 4 Oeste 0 919.7 -0.4 78
2020-01-12 16:00:00 11.7 -- -- 8 Oeste 0 919.3 -2.1 53
2020-01-12 15:00:00 11.9 -- -- 7 Sudoeste 0 919.5 -3.1 51
2020-01-12 14:00:00 10.5 -- -- 9 Oeste 0 920.1 -3.1 54
2020-01-12 13:00:00 8.1 -- -- 2 Sudeste 0 921.4 -1.7 65
2020-01-12 12:00:00 5.1 -- -- 0 Calma 0 922.6 -0.1 78
2020-01-12 11:00:00 1 -- -- -- -- 0 923.2 0.1 99
2020-01-12 10:00:00 -4.8 -- -- -- -- 0 923.1 0.2 99
2020-01-12 09:00:00 -5.6 -- -- -- -- 0 922.7 0 99
2020-01-12 08:00:00 -5.4 -- -- -- -- 0 923.1 0.3 99
2020-01-12 07:00:00 -5.2 -- -- 0 Calma 0 922.9 0 99
2020-01-12 06:00:00 -4.9 -- -- -- -- 0 922.7 -0.2 99
2020-01-12 05:00:00 -4.7 -- -- -- -- 0 922.8 -0.1 99
2020-01-12 04:00:00 -4.5 -- -- -- -- 0 922.9 -0.4 99
2020-01-12 03:00:00 -3.8 -- -- -- -- 0 922.9 -0.4 99
2020-01-12 02:00:00 -3.6 -- -- -- -- 0 922.9 0.2 99
2020-01-12 01:00:00 -3 -- -- -- -- 0 923.3 0.1 99
2020-01-12 00:00:00 -2.6 -- -- -- -- 0 923.3 0.3 99
2020-01-11 23:00:00 -2 -- -- -- -- 0 922.7 0.2 99
2020-01-11 22:00:00 -1.5 -- -- 0 Calma 0 923.2 1.3 99
2020-01-11 21:00:00 -1 -- -- -- -- 0 923 1.8 99
2020-01-11 20:00:00 -0.3 -- -- -- -- 0 922.5 1.5 99
2020-01-11 19:00:00 1 -- -- 0 Calma 0 921.9 1.1 99
2020-01-11 18:00:00 2.9 -- -- 0 Calma 0 921.2 0.4 99
2020-01-11 17:00:00 7.3 -- -- 6 Oeste 0 921 -0.5 81
2020-01-11 16:00:00 11.7 -- -- 7 Noroeste 0 920.8 -1.6 60
2020-01-11 15:00:00 11.3 -- -- 8 Noroeste 0 920.8 -2.5 58
2020-01-11 14:00:00 10.5 -- -- 6 Noroeste 0 921.5 -2.4 59
2020-01-11 13:00:00 8.8 -- -- 6 Sudoeste 0 922.4 -1.1 74
2020-01-11 12:00:00 6.7 -- -- -- -- 0 923.3 0 91
2020-01-11 11:00:00 1.6 -- -- -- -- 0 923.9 1 99
2020-01-11 10:00:00 -2.8 -- -- -- -- 0 923.5 1.1 99
2020-01-11 09:00:00 -3.8 -- -- -- -- 0 923.3 0.9 99
2020-01-11 08:00:00 -3.6 -- -- -- -- 0 922.9 0.6 99
2020-01-11 07:00:00 -3 -- -- -- -- 0 922.4 -0.1 99
2020-01-11 06:00:00 -2.6 -- -- -- -- 0 922.4 0 99
2020-01-11 05:00:00 -2 -- -- -- -- 0 922.3 0.2 99
2020-01-11 04:00:00 -1.6 -- -- 0 Calma 0 922.5 0.5 99
2020-01-11 03:00:00 -1.1 -- -- 2 Sudeste 0 922.4 0.2 99
2020-01-11 02:00:00 -0.4 -- -- 2 Sur 0 922.1 0.4 99
2020-01-11 01:00:00 0.2 -- -- 3 Sur 0 922 0.5 99
2020-01-11 00:00:00 0.6 -- -- 5 Sur 0 922.2 1.2 99
2020-01-10 23:00:00 0.7 -- -- 2 Sur 0 921.7 0.7 99
2020-01-10 22:00:00 1.8 -- -- -- -- 0 921.5 0.8 99
2020-01-10 21:00:00 2.8 -- -- 5 Sudoeste 0 921 1.4 99
2020-01-10 20:00:00 3.5 -- -- 13 Sudoeste 0 921 2 98
2020-01-10 19:00:00 5.1 -- -- 14 Noroeste 0 920.7 1.8 90
2020-01-10 18:00:00 7.4 -- -- 17 Noroeste 0 919.6 1 80
2020-01-10 17:00:00 8.1 -- -- 26 Noroeste 0 919 -0.1 76
2020-01-10 16:00:00 8.7 -- -- 13 Oeste 0 918.9 -0.4 74
2020-01-10 15:00:00 8.3 -- -- 14 Oeste 0 918.6 -1.1 77
2020-01-10 14:00:00 8.1 -- -- 14 Nordeste 0 919.1 -0.2 76
2020-01-10 13:00:00 7.4 -- -- 22 Norte 0 919.3 0.1 79
2020-01-10 12:00:00 8.1 -- -- 21 Oeste 0 919.7 0.8 81
2020-01-10 11:00:00 6.9 -- -- 20 Noroeste 0 919.3 0.8 94
2020-01-10 10:00:00 1.9 -- -- 6 Norte 0 919.2 1.8 99
2020-01-10 09:00:00 0.1 -- -- -- -- 0 918.9 1.3 99
2020-01-10 08:00:00 1.4 -- -- 9 Sudoeste 0 918.5 1.1 99
2020-01-10 07:00:00 0.2 -- -- 4 Sur 0 917.4 0 99
2020-01-10 06:00:00 -0.1 -- -- 2 Nordeste 0 917.6 0.5 99
2020-01-10 05:00:00 -0.2 -- -- -- -- 0 917.4 -0.1 99
2020-01-10 04:00:00 0.8 -- -- -- -- 0 917.4 0 99
2020-01-10 03:00:00 1.6 -- -- -- -- 0 917.1 -0.8 99
2020-01-10 02:00:00 1.6 -- -- 4 Sudoeste 0 917.5 -0.4 99
2020-01-10 01:00:00 1.2 -- -- 4 Noroeste 0 917.4 -0.7 99
2020-01-10 00:00:00 0.1 -- -- 0 Calma 0 917.9 -0.4 99
2020-01-09 23:00:00 0.7 -- -- -- -- 0 917.9 0.2 99
2020-01-09 22:00:00 1.5 -- -- -- -- 0 918.1 0.9 99
2020-01-09 21:00:00 2.8 -- -- -- -- 0 918.3 0.8 99
2020-01-09 20:00:00 2.3 -- -- -- -- 0 917.7 0.6 99
2020-01-09 19:00:00 3.5 -- -- -- -- 0 917.2 0.6 99
2020-01-09 18:00:00 5.6 -- -- -- -- 0 917.5 0.6 99
2020-01-09 17:00:00 10.9 -- -- 8 Noroeste 0 917.1 -0.5 82
2020-01-09 16:00:00 14 -- -- 7 Oeste 0 916.6 -2.4 73
2020-01-09 15:00:00 13.7 -- -- 8 Oeste 0 916.9 -2.7 74
2020-01-09 14:00:00 12.2 -- -- 9 Norte 0 917.6 -2.4 78
2020-01-09 13:00:00 11.5 -- -- 6 Sur 0 919 -1.3 86
2020-01-09 12:00:00 8.9 -- -- 3 Sudeste 0 919.6 -0.3 99
2020-01-09 11:00:00 4.1 -- -- -- -- 0 920 0 99
2020-01-09 10:00:00 -1 -- -- -- -- 0 920.3 0.1 99
2020-01-09 09:00:00 -1.8 -- -- -- -- 0 919.9 -0.3 99
2020-01-09 08:00:00 -2 -- -- -- -- 0 920 -0.8 99
2020-01-09 07:00:00 -1.7 -- -- -- -- 0 920.2 -1 99
2020-01-09 06:00:00 -1.4 -- -- -- -- 0 920.2 -1.3 99
2020-01-09 05:00:00 -1.2 -- -- -- -- 0 920.8 -0.8 99
2020-01-09 04:00:00 -0.9 -- -- -- -- 0 921.2 -0.3 99
2020-01-09 03:00:00 -0.8 -- -- -- -- 0 921.5 -0.5 99
2020-01-09 02:00:00 -0.5 -- -- -- -- 0 921.6 -0.4 99
2020-01-09 01:00:00 -0.3 -- -- -- -- 0 921.5 -0.7 99
2020-01-09 00:00:00 0 -- -- -- -- 0 922 0.1 99
2020-01-08 23:00:00 0.4 -- -- -- -- 0 922 0.4 99
2020-01-08 22:00:00 1.1 -- -- -- -- 0 922.2 1.1 99
2020-01-08 21:00:00 1.7 -- -- -- -- 0 921.9 1.3 99
2020-01-08 20:00:00 2.8 -- -- -- -- 0 921.6 1.5 99
2020-01-08 19:00:00 4.1 -- -- -- -- 0 921.1 1.1 99
2020-01-08 18:00:00 5.9 -- -- -- -- 0 920.6 1.1 99
2020-01-08 17:00:00 10.3 -- -- 6 Sur 0 920.1 0.3 86
2020-01-08 16:00:00 15.5 -- -- 8 Sudeste 0 920 -0.6 63
2020-01-08 15:00:00 16.3 -- -- 10 Sudeste 0 919.5 -2.1 66
2020-01-08 14:00:00 15.8 -- -- 7 Oeste 0 919.8 -2.5 68
2020-01-08 13:00:00 14.7 -- -- 3 Sudeste 0 920.6 -1.9 73
2020-01-08 12:00:00 10.4 -- -- 0 Calma 0 921.6 -0.2 86
2020-01-08 11:00:00 4.9 -- -- -- -- 0 922.3 0.6 99
2020-01-08 10:00:00 -1.1 -- -- -- -- 0 922.5 1 99
2020-01-08 09:00:00 -2.3 -- -- -- -- 0 921.8 0.2 99
2020-01-08 08:00:00 -2.3 -- -- 0 Calma 0 921.7 -0.2 99
2020-01-08 07:00:00 -2.3 -- -- 0 Calma 0 921.5 -0.8 99
2020-01-08 06:00:00 -2.4 -- -- -- -- 0 921.6 -0.8 99
2020-01-08 05:00:00 -2.2 -- -- -- -- 0 921.9 -0.7 99
2020-01-08 04:00:00 -2 -- -- -- -- 0 922.3 -0.6 99
2020-01-08 03:00:00 -1.9 -- -- -- -- 0 922.4 -0.7 99
2020-01-08 02:00:00 -1.8 -- -- 3 Sudoeste 0 922.6 -0.6 99
2020-01-08 01:00:00 -1.7 -- -- -- -- 0 922.9 -0.2 99
2020-01-08 00:00:00 -1.6 -- -- -- -- 0 923.1 0.1 99
2020-01-07 23:00:00 -1.4 -- -- -- -- 0 923.2 0.4 99
2020-01-07 22:00:00 -0.6 -- -- -- -- 0 923.1 0.8 99
2020-01-07 21:00:00 -0.2 -- -- -- -- 0 923 1.2 99
2020-01-07 20:00:00 0.5 -- -- -- -- 0 922.8 1.6 99
2020-01-07 19:00:00 1.8 -- -- -- -- 0 922.3 1.1 99
2020-01-07 18:00:00 3.6 -- -- -- -- 0 921.8 0.5 99
2020-01-07 17:00:00 8.3 -- -- 6 Noroeste 0 921.2 -0.7 81
2020-01-07 16:00:00 17 -- -- 14 Oeste 0 921.2 -1.7 39
2020-01-07 15:00:00 17.2 -- -- 10 Noroeste 0 921.3 -2.5 41
2020-01-07 14:00:00 14.6 -- -- 6 Oeste 0 921.9 -2.4 57
2020-01-07 13:00:00 11.7 -- -- 3 Noroeste 0 922.9 -1.9 65
2020-01-07 12:00:00 9.5 -- -- -- -- 0 923.8 -0.4 78
2020-01-07 11:00:00 3.9 -- -- -- -- 0 924.3 0.3 99
2020-01-07 10:00:00 -2.9 -- -- -- -- 0 924.8 1 99
2020-01-07 09:00:00 -3.6 -- -- -- -- 0 924.2 0.5 99
2020-01-07 08:00:00 -3.7 -- -- -- -- 0 924 0.6 99
2020-01-07 07:00:00 -3.8 -- -- -- -- 0 923.8 0.2 99
2020-01-07 06:00:00 -3.4 -- -- -- -- 0 923.7 0 99
2020-01-07 05:00:00 -3.3 -- -- -- -- 0 923.4 -0.1 99
2020-01-07 04:00:00 -2.9 -- -- -- -- 0 923.6 0.2 99
2020-01-07 03:00:00 -2.5 -- -- -- -- 0 923.7 0.3 99
2020-01-07 02:00:00 -2.2 -- -- -- -- 0 923.5 0.1 99
2020-01-07 01:00:00 -1.9 -- -- -- -- 0 923.4 0.2 99
2020-01-07 00:00:00 -1.5 -- -- -- -- 0 923.4 0.7 99
2020-01-06 23:00:00 -1.1 -- -- -- -- 0 923.4 1.2 99
2020-01-06 22:00:00 -0.6 -- -- -- -- 0 923.2 1.9 99
2020-01-06 21:00:00 -0.1 -- -- -- -- 0 922.7 1.8 99
2020-01-06 20:00:00 0.3 -- -- -- -- 0 922.2 1.9 99
2020-01-06 19:00:00 1.4 -- -- -- -- 0 921.3 1.5 99
2020-01-06 18:00:00 3.2 -- -- -- -- 0 920.9 1 99
2020-01-06 17:00:00 7.2 -- -- 3 Sur 0 920.3 0.3 86
2020-01-06 16:00:00 11.9 -- -- 11 Noroeste 0 919.8 -1.4 59
2020-01-06 15:00:00 14.6 -- -- 9 Noroeste 0 919.9 -2 51
2020-01-06 14:00:00 13.2 -- -- 4 Oeste 0 920 -2.4 54
2020-01-06 13:00:00 11.4 -- -- 0 Calma 0 921.2 -1.5 61
2020-01-06 12:00:00 8.7 -- -- -- -- 0 921.9 -0.3 71
2020-01-06 11:00:00 3.2 -- -- -- -- 0 922.4 0.9 99
2020-01-06 10:00:00 -2.5 -- -- -- -- 0 922.7 1.3 99